MZ-0026 weather

Mague Airport
Mague, Tete Province, Mozambique

Public forecast

Using degrees Celsius for public forecast. Weather courtesy of forecast.io.

METAR (pilot weather report)

Closest report is Chingozi Airport, 111.1 nm (205.7 km) E. Retrieved 2019/05/21 04:00 UTC (14 minutes ago):

FQTT 210400Z 02003KT 9999 FEW020 14/13 Q1019

TAF (pilot weather forecast)

Closest forecast is Chingozi Airport, 111.1 nm (205.7 km) E. Retrieved 2019/05/21 00:18 UTC (4 hours ago):

TAF COR FQTT 202200Z 2100/2200 06006KT CAVOK TX31/2113Z TN21/2103Z BECMG 2106/2108 15007KT BECMG 2118/2120 23010KT